TimePST,TemperatureF,Dew PointF,Humidity,Sea Level PressureIn,VisibilityMPH,Wind Direction,Wind SpeedMPH,Gust SpeedMPH,PrecipitationIn,Events,Conditions,WindDirDegrees,DateUTC
12:53 AM,24.1,21.0,88,30.13,10.0,North,5.8,-,N/A,,Clear,360,2012-12-03 08:53:00
1:53 AM,25.0,23.0,92,30.13,10.0,NE,3.5,-,N/A,,Clear,40,2012-12-03 09:53:00
2:53 AM,25.0,23.0,92,30.14,10.0,Calm,Calm,-,N/A,,Clear,0,2012-12-03 10:53:00
4:53 AM,24.1,21.9,91,30.18,10.0,Calm,Calm,-,N/A,,Clear,0,2012-12-03 12:53:00
5:53 AM,24.1,21.9,91,30.19,10.0,NNW,5.8,-,N/A,,Clear,330,2012-12-03 13:53:00
7:53 AM,25.0,23.0,92,30.24,10.0,East,3.5,-,N/A,,Clear,90,2012-12-03 15:53:00
8:53 AM,28.9,26.1,89,30.25,10.0,WSW,4.6,-,N/A,,Clear,240,2012-12-03 16:53:00
9:53 AM,37.0,32.0,82,30.27,10.0,SSE,4.6,-,N/A,,Clear,150,2012-12-03 17:53:00
10:53 AM,41.0,34.0,76,30.26,10.0,East,3.5,-,N/A,,Clear,90,2012-12-03 18:53:00
11:53 AM,46.0,35.1,66,30.22,10.0,South,5.8,-,N/A,,Clear,180,2012-12-03 19:53:00
12:53 PM,48.0,33.1,56,30.22,10.0,Calm,Calm,-,N/A,,Clear,0,2012-12-03 20:53:00
1:53 PM,50.0,33.1,52,30.21,10.0,Variable,3.5,-,N/A,,Clear,0,2012-12-03 21:53:00
2:53 PM,51.1,33.1,50,30.18,10.0,Calm,Calm,-,N/A,,Clear,0,2012-12-03 22:53:00
3:53 PM,48.0,33.1,56,30.20,10.0,West,4.6,-,N/A,,Clear,260,2012-12-03 23:53:00
4:53 PM,43.0,32.0,65,30.22,10.0,West,3.5,-,N/A,,Clear,280,2012-12-04 00:53:00
5:53 PM,41.0,32.0,70,30.23,10.0,Calm,Calm,-,N/A,,Clear,0,2012-12-04 01:53:00
6:53 PM,39.9,30.9,70,30.24,10.0,NNE,3.5,-,N/A,,Clear,30,2012-12-04 02:53:00
7:53 PM,39.9,32.0,73,30.23,10.0,Calm,Calm,-,N/A,,Mostly Cloudy,0,2012-12-04 03:53:00
8:53 PM,39.0,32.0,76,30.23,10.0,ESE,3.5,-,N/A,,Overcast,120,2012-12-04 04:53:00
10:53 PM,39.0,32.0,76,30.19,10.0,West,4.6,-,N/A,,Mostly Cloudy,280,2012-12-04 06:53:00
11:53 PM,39.0,32.0,76,30.18,10.0,Calm,Calm,-,N/A,,Overcast,0,2012-12-04 07:53:00